In Rescue
 
Open Full Screen Window  High Contrast Mode
Wind Gusting 17 knots
13
May 20, 2019 2:43 PM EDT
Weather Information
Wind Direction
  280 °
Wind Speed
  13 kt (15 mph)
Wind Gust
  17 kt (20 mph)
Altimeter
30.02 in
Visibility
10 SM
Temperature
11° C
52° F
Dewpoint
06° C
43° F
Humidity
72%
1hr Rain Fall
00.00 in.
24hr Rain Fall
00.55 in.
Sky Condition
Overcast @ 2,700 ft
MVFR

METAR KRMY 201843Z AUTO 28013G17KT 10SM OVC027 11/06 A3002 RMK AO2 T01080061

FAA Disclaimer: The data displayed is for advisory purposes only and is not to be used for flight planning or operations.